createdAt,value
2018-12-09T00:01:34.282Z,100395.34
2018-12-09T00:04:41.646Z,100389.34
2018-12-09T00:07:45.126Z,100386.83
2018-12-09T00:10:50.806Z,100381.11
2018-12-09T00:13:58.830Z,100374.09
2018-12-09T00:17:02.475Z,100379.11
2018-12-09T00:20:11.657Z,100371.10
2018-12-09T00:23:16.300Z,100372.23
2018-12-09T00:26:19.835Z,100373.62
2018-12-09T00:29:23.409Z,100370.67
2018-12-09T00:32:26.941Z,100355.04
2018-12-09T00:35:30.580Z,100356.95
2018-12-09T00:38:34.367Z,100359.35
2018-12-09T00:41:37.785Z,100366.22
2018-12-09T00:44:41.365Z,100368.02
2018-12-09T00:47:44.842Z,100374.84
2018-12-09T00:50:48.469Z,100378.02
2018-12-09T00:53:52.059Z,100374.67
2018-12-09T00:56:55.691Z,100364.32
2018-12-09T01:00:00.395Z,100359.65
2018-12-09T01:03:03.984Z,100355.41
2018-12-09T01:06:07.433Z,100350.31
2018-12-09T01:09:11.080Z,100337.83
2018-12-09T01:12:14.606Z,100335.10
2018-12-09T01:15:18.258Z,100327.37
2018-12-09T01:18:21.730Z,100331.54
2018-12-09T01:21:25.405Z,100330.50
2018-12-09T01:24:29.019Z,100323.65
2018-12-09T01:27:32.662Z,100325.48
2018-12-09T01:30:36.264Z,100316.58
2018-12-09T01:33:39.910Z,100320.00
2018-12-09T01:36:43.468Z,100326.58
2018-12-09T01:39:46.974Z,100317.32
2018-12-09T01:42:50.574Z,100309.93
2018-12-09T01:45:54.222Z,100321.25
2018-12-09T01:48:57.851Z,100317.70
2018-12-09T01:52:01.396Z,100303.31
2018-12-09T01:55:05.347Z,100304.16
2018-12-09T01:58:08.827Z,100280.93
2018-12-09T02:01:12.320Z,100285.87
2018-12-09T02:04:16.182Z,100296.33
2018-12-09T02:07:19.750Z,100304.95
2018-12-09T02:10:23.346Z,100297.29
2018-12-09T02:13:26.911Z,100287.74
2018-12-09T02:16:30.250Z,100289.16
2018-12-09T02:19:33.787Z,100257.38
2018-12-09T02:22:37.316Z,100255.70
2018-12-09T02:25:40.900Z,100259.03
2018-12-09T02:28:44.435Z,100288.37
2018-12-09T02:31:47.945Z,100276.03
2018-12-09T02:34:52.171Z,100255.19
2018-12-09T02:37:55.759Z,100280.67
2018-12-09T02:40:59.389Z,100294.49
2018-12-09T02:44:03.015Z,100301.78
2018-12-09T02:47:06.570Z,100330.46
2018-12-09T02:50:10.176Z,100326.53
2018-12-09T02:53:13.799Z,100326.95
2018-12-09T02:56:17.420Z,100340.10
2018-12-09T02:59:21.066Z,100333.18
2018-12-09T03:02:24.590Z,100332.15
2018-12-09T03:05:28.100Z,100330.69
2018-12-09T03:08:31.603Z,100332.07
2018-12-09T03:11:35.219Z,100311.75
2018-12-09T03:14:38.813Z,100306.42
2018-12-09T03:17:42.319Z,100313.78
2018-12-09T03:20:45.834Z,100331.96
2018-12-09T03:23:49.442Z,100330.25
2018-12-09T03:26:55.036Z,100339.24
2018-12-09T03:29:56.648Z,100340.78
2018-12-09T03:33:00.076Z,100332.38
2018-12-09T03:36:03.655Z,100319.75
2018-12-09T03:39:08.014Z,100349.40
2018-12-09T03:42:11.573Z,100335.97
2018-12-09T03:45:15.192Z,100339.05
2018-12-09T03:48:18.816Z,100341.17
2018-12-09T03:51:22.486Z,100349.81
2018-12-09T03:54:25.904Z,100335.94
2018-12-09T03:57:29.417Z,100344.10
2018-12-09T04:00:33.015Z,100348.16
2018-12-09T04:03:36.535Z,100349.32
2018-12-09T04:06:40.030Z,100341.91
2018-12-09T04:09:43.497Z,100344.33
2018-12-09T04:12:47.001Z,100344.65
2018-12-09T04:15:50.552Z,100347.23
2018-12-09T04:18:54.067Z,100361.56
2018-12-09T04:21:57.520Z,100348.60
2018-12-09T04:25:01.020Z,100354.95
2018-12-09T04:28:04.543Z,100353.20
2018-12-09T04:31:08.161Z,100367.33
2018-12-09T04:34:11.701Z,100364.41
2018-12-09T04:37:15.260Z,100363.26
2018-12-09T04:40:18.840Z,100370.16
2018-12-09T04:43:22.369Z,100375.37
2018-12-09T04:46:25.836Z,100382.82
2018-12-09T04:49:29.298Z,100379.79
2018-12-09T04:52:32.883Z,100380.97
2018-12-09T04:55:36.475Z,100389.00
2018-12-09T04:58:50.096Z,100388.46
2018-12-09T05:01:53.612Z,100398.88
2018-12-09T05:04:57.229Z,100400.03
2018-12-09T05:08:00.798Z,100402.68
2018-12-09T05:11:04.299Z,100402.49
2018-12-09T05:14:07.789Z,100409.62
2018-12-09T05:17:11.197Z,100414.06
2018-12-09T05:20:14.925Z,100424.49
2018-12-09T05:23:18.423Z,100428.25
2018-12-09T05:26:21.923Z,100445.90
2018-12-09T05:29:25.428Z,100452.22
2018-12-09T05:32:28.878Z,100455.92
2018-12-09T05:35:32.467Z,100462.06
2018-12-09T05:38:36.140Z,100469.16
2018-12-09T05:41:39.708Z,100475.07
2018-12-09T05:44:43.297Z,100484.95
2018-12-09T05:47:47.055Z,100477.72
2018-12-09T05:50:50.748Z,100484.94
2018-12-09T05:53:54.469Z,100473.31
2018-12-09T05:56:57.923Z,100475.54
2018-12-09T06:00:01.559Z,100495.94
2018-12-09T06:03:05.294Z,100495.94
2018-12-09T06:06:08.745Z,100499.87
2018-12-09T06:09:12.238Z,100514.06
2018-12-09T06:12:16.196Z,100522.58
2018-12-09T06:15:19.730Z,100527.36
2018-12-09T06:18:23.187Z,100537.67
2018-12-09T06:21:26.767Z,100545.94
2018-12-09T06:24:30.360Z,100545.04
2018-12-09T06:27:34.177Z,100552.26
2018-12-09T06:30:37.885Z,100551.20
2018-12-09T06:33:41.747Z,100559.76
2018-12-09T06:36:45.451Z,100563.91
2018-12-09T06:39:49.177Z,100579.01
2018-12-09T06:42:52.723Z,100565.08
2018-12-09T06:45:56.539Z,100564.28
2018-12-09T06:49:00.299Z,100579.70
2018-12-09T06:52:04.000Z,100570.80
2018-12-09T06:55:09.067Z,100572.64
2018-12-09T06:58:12.891Z,100570.08
2018-12-09T07:01:21.611Z,100568.79
2018-12-09T07:04:25.289Z,100582.36
2018-12-09T07:07:29.916Z,100603.82
2018-12-09T07:10:33.492Z,100599.51
2018-12-09T07:13:37.108Z,100597.27
2018-12-09T07:16:40.728Z,100597.88
2018-12-09T07:19:45.474Z,100608.84
2018-12-09T07:22:49.005Z,100627.21
2018-12-09T07:25:52.712Z,100630.06
2018-12-09T07:28:56.311Z,100637.25
2018-12-09T07:31:59.868Z,100653.42
2018-12-09T07:35:03.672Z,100657.13
2018-12-09T07:38:07.358Z,100665.29
2018-12-09T07:41:10.947Z,100673.81
2018-12-09T07:44:14.547Z,100677.01
2018-12-09T07:47:18.146Z,100678.31
2018-12-09T07:50:21.871Z,100682.15
2018-12-09T07:53:25.489Z,100681.43
2018-12-09T07:56:29.065Z,100684.97
2018-12-09T07:59:32.742Z,100691.82
2018-12-09T08:02:36.275Z,100682.96
2018-12-09T08:05:39.847Z,100686.21
2018-12-09T08:08:43.394Z,100687.00
2018-12-09T08:11:47.021Z,100696.09
2018-12-09T08:14:50.697Z,100697.56
2018-12-09T08:17:54.264Z,100690.81
2018-12-09T08:20:57.739Z,100698.64
2018-12-09T08:24:01.521Z,100691.27
2018-12-09T08:27:05.132Z,100692.70
2018-12-09T08:30:08.920Z,100705.40
2018-12-09T08:33:12.741Z,100702.38
2018-12-09T08:36:16.246Z,100699.24
2018-12-09T08:39:19.800Z,100699.57
2018-12-09T08:42:23.559Z,100710.11
2018-12-09T08:45:27.165Z,100708.61
2018-12-09T08:48:30.695Z,100709.86
2018-12-09T08:51:34.318Z,100702.00
2018-12-09T08:54:37.894Z,100700.34
2018-12-09T08:57:41.506Z,100706.39
2018-12-09T09:00:45.335Z,100700.20
2018-12-09T09:03:48.850Z,100700.92
2018-12-09T09:06:52.443Z,100705.99
2018-12-09T09:09:56.211Z,100708.17
2018-12-09T09:12:59.998Z,100714.42
2018-12-09T09:16:03.547Z,100706.42
2018-12-09T09:19:07.367Z,100708.30
2018-12-09T09:22:11.049Z,100707.75
2018-12-09T09:25:14.567Z,100709.95
2018-12-09T09:28:18.009Z,100711.58
2018-12-09T09:31:21.622Z,100706.73
2018-12-09T09:34:25.272Z,100707.96
2018-12-09T09:37:28.763Z,100709.03
2018-12-09T09:40:32.338Z,100696.33
2018-12-09T09:43:35.907Z,100700.48
2018-12-09T09:46:39.541Z,100696.53
2018-12-09T09:49:43.109Z,100692.30
2018-12-09T09:52:46.768Z,100692.53
2018-12-09T09:55:50.326Z,100691.82
2018-12-09T09:58:53.910Z,100704.71
2018-12-09T10:01:57.432Z,100705.92
2018-12-09T10:05:01.961Z,100716.72
2018-12-09T10:08:05.537Z,100709.54
2018-12-09T10:11:10.180Z,100708.21
2018-12-09T10:14:13.828Z,100711.47
2018-12-09T10:17:17.465Z,100715.11
2018-12-09T10:20:21.001Z,100724.12
2018-12-09T10:23:24.537Z,100712.09
2018-12-09T10:26:36.233Z,100712.80
2018-12-09T10:29:32.122Z,100712.38
2018-12-09T10:32:36.022Z,100713.42
2018-12-09T10:35:39.531Z,100711.00
2018-12-09T10:38:43.106Z,100709.73
2018-12-09T10:41:46.577Z,100710.84
2018-12-09T10:44:50.006Z,100695.94
2018-12-09T10:47:53.676Z,100703.90
2018-12-09T10:50:57.257Z,100700.29
2018-12-09T10:54:00.852Z,100695.40
2018-12-09T10:57:04.409Z,100705.71
2018-12-09T11:00:12.074Z,100693.51
2018-12-09T11:03:15.565Z,100703.40
2018-12-09T11:06:19.280Z,100697.33
2018-12-09T11:09:22.750Z,100696.40
2018-12-09T11:12:26.275Z,100690.38
2018-12-09T11:15:29.709Z,100689.78
2018-12-09T11:18:33.274Z,100692.90
2018-12-09T11:21:37.396Z,100697.78
2018-12-09T11:24:40.979Z,100685.29
2018-12-09T11:27:44.539Z,100680.63
2018-12-09T11:30:48.208Z,100685.45
2018-12-09T11:33:51.694Z,100666.27
2018-12-09T11:36:55.317Z,100677.18
2018-12-09T11:39:58.876Z,100683.18
2018-12-09T11:43:02.336Z,100671.68
2018-12-09T11:46:05.942Z,100669.37
2018-12-09T11:49:09.853Z,100667.39
2018-12-09T11:52:13.323Z,100662.25
2018-12-09T11:55:16.878Z,100660.29
2018-12-09T11:58:21.345Z,100655.79
2018-12-09T12:01:25.617Z,100654.59
2018-12-09T12:04:29.098Z,100648.59
2018-12-09T12:07:32.486Z,100650.04
2018-12-09T12:10:36.092Z,100651.14
2018-12-09T12:13:39.587Z,100646.00
2018-12-09T12:16:43.068Z,100644.21
2018-12-09T12:19:46.912Z,100645.24
2018-12-09T12:22:51.503Z,100657.51
2018-12-09T12:25:55.191Z,100662.93
2018-12-09T12:28:58.748Z,100669.74
2018-12-09T12:32:02.343Z,100662.38
2018-12-09T12:35:06.062Z,100663.06
2018-12-09T12:38:09.659Z,100655.87
2018-12-09T12:41:13.155Z,100665.09
2018-12-09T12:44:17.912Z,100682.57
2018-12-09T12:47:21.487Z,100663.04
2018-12-09T12:50:25.356Z,100664.66
2018-12-09T12:53:28.884Z,100671.48
2018-12-09T12:56:32.551Z,100670.74
2018-12-09T12:59:36.319Z,100681.25
2018-12-09T13:02:39.930Z,100678.69
2018-12-09T13:05:43.551Z,100685.87
2018-12-09T13:08:47.123Z,100690.18
2018-12-09T13:11:50.700Z,100690.92
2018-12-09T13:14:54.240Z,100696.08
2018-12-09T13:17:57.843Z,100702.27
2018-12-09T13:21:01.514Z,100697.10
2018-12-09T13:24:05.104Z,100703.50
2018-12-09T13:27:08.628Z,100694.83
2018-12-09T13:30:12.246Z,100700.55
2018-12-09T13:33:15.751Z,100698.19
2018-12-09T13:36:19.365Z,100707.91
2018-12-09T13:39:22.953Z,100717.22
2018-12-09T13:42:26.402Z,100711.84
2018-12-09T13:45:30.029Z,100715.62
2018-12-09T13:48:33.725Z,100731.03
2018-12-09T13:51:37.444Z,100724.73
2018-12-09T13:54:40.973Z,100734.59
2018-12-09T13:57:44.388Z,100737.64
2018-12-09T14:00:52.119Z,100734.61
2018-12-09T14:04:00.202Z,100735.22
2018-12-09T14:07:12.219Z,100742.86
2018-12-09T14:10:29.841Z,100742.16
2018-12-09T14:13:33.354Z,100736.70
2018-12-09T14:16:36.862Z,100730.77
2018-12-09T14:19:41.613Z,100728.35
2018-12-09T14:22:45.349Z,100732.25
2018-12-09T14:25:49.909Z,100748.60
2018-12-09T14:28:54.217Z,100752.57
2018-12-09T14:31:57.874Z,100757.22
2018-12-09T14:35:01.449Z,100767.89
2018-12-09T14:38:04.984Z,100767.00
2018-12-09T14:41:08.823Z,100780.20
2018-12-09T14:44:12.468Z,100784.12
2018-12-09T14:47:15.966Z,100792.02
2018-12-09T14:50:19.472Z,100785.91
2018-12-09T14:53:22.976Z,100785.68
2018-12-09T14:56:26.481Z,100793.99
2018-12-09T14:59:30.022Z,100808.50
2018-12-09T15:02:33.669Z,100815.57
2018-12-09T15:05:37.466Z,100817.96
2018-12-09T15:08:40.991Z,100820.83
2018-12-09T15:11:44.518Z,100829.09
2018-12-09T15:14:48.182Z,100836.50
2018-12-09T15:17:51.765Z,100835.49
2018-12-09T15:20:55.357Z,100845.87
2018-12-09T15:23:58.901Z,100852.45
2018-12-09T15:27:02.361Z,100857.03
2018-12-09T15:30:08.178Z,100865.07
2018-12-09T15:33:12.181Z,100864.94
2018-12-09T15:36:15.866Z,100876.32
2018-12-09T15:39:20.559Z,100882.08
2018-12-09T15:42:24.211Z,100886.44
2018-12-09T15:45:27.775Z,100887.15
2018-12-09T15:48:32.681Z,100896.77
2018-12-09T15:51:36.468Z,100897.02
2018-12-09T15:54:40.101Z,100907.34
2018-12-09T15:57:43.624Z,100905.11
2018-12-09T16:00:53.583Z,100906.47
2018-12-09T16:03:57.238Z,100910.84
2018-12-09T16:07:00.790Z,100913.66
2018-12-09T16:10:05.024Z,100919.40
2018-12-09T16:13:08.768Z,100923.61
2018-12-09T16:16:12.366Z,100929.92
2018-12-09T16:19:15.972Z,100944.55
2018-12-09T16:22:19.684Z,100951.01
2018-12-09T16:25:23.364Z,100950.96
2018-12-09T16:28:28.043Z,100958.93
2018-12-09T16:31:31.648Z,100966.64
2018-12-09T16:34:35.152Z,100971.67
2018-12-09T16:37:39.567Z,100985.59
2018-12-09T16:40:43.118Z,100993.73
2018-12-09T16:43:46.882Z,101001.86
2018-12-09T16:46:50.403Z,100998.63
2018-12-09T16:49:53.949Z,101011.71
2018-12-09T16:52:57.520Z,101016.67
2018-12-09T16:56:01.048Z,101026.97
2018-12-09T16:59:04.628Z,101033.12
2018-12-09T17:02:08.249Z,101039.54
2018-12-09T17:05:11.706Z,101051.55
2018-12-09T17:08:15.327Z,101065.11
2018-12-09T17:11:18.902Z,101065.73
2018-12-09T17:14:22.636Z,101085.85
2018-12-09T17:17:26.184Z,101097.32
2018-12-09T17:20:30.020Z,101103.24
2018-12-09T17:23:33.700Z,101115.55
2018-12-09T17:26:37.287Z,101123.16
2018-12-09T17:29:40.995Z,101137.05
2018-12-09T17:32:45.471Z,101148.57
2018-12-09T17:35:49.038Z,101153.91
2018-12-09T17:38:52.565Z,101159.31
2018-12-09T17:41:56.139Z,101174.94
2018-12-09T17:44:59.503Z,101175.09
2018-12-09T17:48:02.982Z,101182.92
2018-12-09T17:51:06.554Z,101188.79
2018-12-09T17:54:10.112Z,101196.83
2018-12-09T17:57:13.636Z,101207.45
2018-12-09T18:00:17.054Z,101219.99
2018-12-09T18:03:20.659Z,101227.06
2018-12-09T18:06:24.237Z,101232.86
2018-12-09T18:09:28.661Z,101239.15
2018-12-09T18:12:32.160Z,101240.11
2018-12-09T18:15:35.699Z,101258.08
2018-12-09T18:18:39.137Z,101264.51
2018-12-09T18:21:42.831Z,101270.40
2018-12-09T18:24:46.543Z,101274.47
2018-12-09T18:27:51.030Z,101271.84
2018-12-09T18:30:54.621Z,101279.67
2018-12-09T18:33:58.096Z,101287.69
2018-12-09T18:37:01.766Z,101293.28
2018-12-09T18:40:06.791Z,101303.49
2018-12-09T18:43:10.277Z,101313.88
2018-12-09T18:46:13.893Z,101319.07
2018-12-09T18:49:17.357Z,101324.73
2018-12-09T18:52:21.182Z,101337.41
2018-12-09T18:55:24.937Z,101336.72
2018-12-09T18:58:28.289Z,101346.54
2018-12-09T19:01:31.903Z,101357.67
2018-12-09T19:04:35.527Z,101371.28
2018-12-09T19:07:39.105Z,101373.53
2018-12-09T19:10:42.734Z,101384.59
2018-12-09T19:13:46.214Z,101392.11
2018-12-09T19:16:49.953Z,101397.72
2018-12-09T19:19:53.539Z,101407.83
2018-12-09T19:22:57.244Z,101409.56
2018-12-09T19:26:00.890Z,101419.48
2018-12-09T19:29:04.709Z,101421.61
2018-12-09T19:32:08.783Z,101426.82
2018-12-09T19:35:13.351Z,101434.96
2018-12-09T19:38:16.908Z,101442.37
2018-12-09T19:41:20.582Z,101448.07
2018-12-09T19:44:24.399Z,101450.12
2018-12-09T19:47:28.170Z,101460.31
2018-12-09T19:50:31.730Z,101470.83
2018-12-09T19:53:35.413Z,101480.34
2018-12-09T19:56:39.011Z,101488.01
2018-12-09T19:59:42.521Z,101501.21
2018-12-09T20:02:46.042Z,101513.33
2018-12-09T20:05:49.626Z,101523.97
2018-12-09T20:08:53.202Z,101538.89
2018-12-09T20:11:57.120Z,101538.53
2018-12-09T20:15:00.728Z,101535.21
2018-12-09T20:18:04.203Z,101543.19
2018-12-09T20:21:07.816Z,101548.12
2018-12-09T20:24:11.361Z,101553.74
2018-12-09T20:27:14.976Z,101552.63
2018-12-09T20:30:18.475Z,101562.28
2018-12-09T20:33:21.976Z,101568.33
2018-12-09T20:36:25.542Z,101579.35
2018-12-09T20:39:29.113Z,101584.54
2018-12-09T20:42:32.667Z,101595.06
2018-12-09T20:45:36.187Z,101596.50
2018-12-09T20:48:39.824Z,101605.21
2018-12-09T20:51:43.295Z,101611.85
2018-12-09T20:54:46.851Z,101611.74
2018-12-09T20:57:50.430Z,101612.17
2018-12-09T21:00:54.004Z,101617.42
2018-12-09T21:03:57.600Z,101618.55
2018-12-09T21:07:01.220Z,101626.91
2018-12-09T21:10:05.721Z,101638.63
2018-12-09T21:13:11.273Z,101654.76
2018-12-09T21:16:14.795Z,101662.42
2018-12-09T21:19:18.412Z,101665.97
2018-12-09T21:22:22.089Z,101674.12
2018-12-09T21:25:25.601Z,101666.86
2018-12-09T21:28:29.392Z,101675.73
2018-12-09T21:31:33.042Z,101680.84
2018-12-09T21:34:36.636Z,101683.08
2018-12-09T21:37:42.022Z,101690.32
2018-12-09T21:40:44.865Z,101699.21
2018-12-09T21:43:48.420Z,101700.88
2018-12-09T21:46:51.960Z,101703.63
2018-12-09T21:49:55.559Z,101707.39
2018-12-09T21:52:59.075Z,101713.71
2018-12-09T21:56:02.629Z,101718.61
2018-12-09T21:59:06.221Z,101719.84
2018-12-09T22:02:09.758Z,101722.98
2018-12-09T22:05:13.287Z,101729.14
2018-12-09T22:08:16.781Z,101740.97
2018-12-09T22:11:20.446Z,101749.05
2018-12-09T22:14:24.004Z,101751.03
2018-12-09T22:17:27.470Z,101762.32
2018-12-09T22:20:30.908Z,101771.73
2018-12-09T22:23:34.298Z,101781.54
2018-12-09T22:26:37.965Z,101792.48
2018-12-09T22:29:41.417Z,101791.33
2018-12-09T22:32:46.044Z,101803.06
2018-12-09T22:35:50.912Z,101810.53
2018-12-09T22:38:54.454Z,101811.03
2018-12-09T22:41:57.947Z,101819.24
2018-12-09T22:45:01.479Z,101818.68
2018-12-09T22:48:05.089Z,101829.04
2018-12-09T22:51:08.585Z,101835.01
2018-12-09T22:54:12.096Z,101840.18
2018-12-09T22:57:15.588Z,101841.00
2018-12-09T23:00:24.863Z,101848.81
2018-12-09T23:03:28.520Z,101854.77
2018-12-09T23:06:32.212Z,101858.69
2018-12-09T23:09:35.659Z,101873.30
2018-12-09T23:12:40.250Z,101887.57
2018-12-09T23:15:43.691Z,101903.83
2018-12-09T23:18:47.275Z,101900.33
2018-12-09T23:21:50.970Z,101905.99
2018-12-09T23:24:54.379Z,101908.06
2018-12-09T23:27:58.895Z,101912.20
2018-12-09T23:31:02.278Z,101920.29
2018-12-09T23:34:05.734Z,101927.20
2018-12-09T23:37:09.178Z,101923.60
2018-12-09T23:40:12.583Z,101919.23
2018-12-09T23:43:17.265Z,101923.33
2018-12-09T23:46:20.720Z,101927.02
2018-12-09T23:49:24.271Z,101936.43
2018-12-09T23:52:27.785Z,101942.68
2018-12-09T23:55:31.168Z,101944.35
2018-12-09T23:58:34.511Z,101945.13
